Time;durP1;ratioP1;P1;durP2;ratioP2;P2;SDS_P1;SDS_P2;PMS_P1;PMS_P2;Temp;Humidity;BMP_temperature;BMP_pressure;BME280_temperature;BME280_humidity;BME280_pressure;Samples;Min_cycle;Max_cycle;Signal;HPM_P1;HPM_P2
2023/10/11 00:03:18;;;;;;;21.30;2.87;;;19.50;51.50;;;;;;5072397;28;20438;-50
2023/10/11 00:05:47;;;;;;;31.45;5.53;;;;;;;;;;5072381;28;20468;-50
2023/10/11 00:08:18;;;;;;;14.73;2.97;;;;;;;;;;5072293;28;20715;-50
2023/10/11 00:10:54;;;;;;;17.30;2.80;;;;;;;;;;5072337;28;20231;-48
2023/10/11 00:13:21;;;;;;;10.32;1.90;;;;;;;;;;5072320;28;20441;-50
2023/10/11 00:15:49;;;;;;;25.90;3.58;;;19.40;51.20;;;;;;5071835;28;20189;-50
2023/10/11 00:18:19;;;;;;;17.33;3.45;;;;;;;;;;5072453;28;20264;-50
2023/10/11 00:20:47;;;;;;;15.13;1.98;;;19.40;51.10;;;;;;5072306;28;20180;-50
2023/10/11 00:23:17;;;;;;;17.50;3.33;;;;;;;;;;5072168;28;20172;-51
2023/10/11 00:25:44;;;;;;;23.95;3.33;;;;;;;;;;5071991;28;20482;-48
2023/10/11 00:28:13;;;;;;;14.27;1.93;;;19.40;51.00;;;;;;5071986;28;20287;-50
2023/10/11 00:30:39;;;;;;;16.52;2.83;;;;;;;;;;5072297;28;20418;-50
2023/10/11 00:33:09;;;;;;;13.68;2.40;;;;;;;;;;5072013;28;20175;-47
2023/10/11 00:35:41;;;;;;;69.18;7.85;;;;;;;;;;5071721;28;20177;-50
2023/10/11 00:38:11;;;;;;;10.60;2.17;;;;;;;;;;5072170;28;20176;-50
2023/10/11 00:40:37;;;;;;;15.52;2.50;;;19.30;50.60;;;;;;5071890;28;20180;-49
2023/10/11 00:43:03;;;;;;;17.37;2.03;;;19.30;50.20;;;;;;5071834;28;20172;-49
2023/10/11 00:45:36;;;;;;;24.23;3.20;;;19.30;50.20;;;;;;5071630;28;20721;-49
2023/10/11 00:48:06;;;;;;;14.73;2.90;;;19.30;50.20;;;;;;5071740;28;20795;-50
2023/10/11 00:50:33;;;;;;;15.02;2.80;;;19.40;49.70;;;;;;5072066;28;20403;-48
2023/10/11 00:53:03;;;;;;;15.13;2.40;;;;;;;;;;5071943;28;20182;-47
2023/10/11 00:55:29;;;;;;;28.65;3.38;;;19.40;50.00;;;;;;5071321;28;20187;-51
2023/10/11 00:57:56;;;;;;;14.77;2.00;;;;;;;;;;5071765;28;20223;-47
2023/10/11 01:00:23;;;;;;;16.70;2.90;;;19.30;49.40;;;;;;5071914;28;20808;-48
2023/10/11 01:02:52;;;;;;;19.33;2.43;;;19.30;49.70;;;;;;5071800;28;20414;-50
2023/10/11 01:05:18;;;;;;;18.57;2.13;;;19.40;49.30;;;;;;5071715;28;20407;-49
2023/10/11 01:07:45;;;;;;;18.40;2.80;;;;;;;;;;5071388;28;20818;-50
2023/10/11 01:10:11;;;;;;;15.47;2.13;;;;;;;;;;5071591;28;20172;-47
2023/10/11 01:12:40;;;;;;;16.73;2.67;;;;;;;;;;5071636;28;20395;-49
2023/10/11 01:15:11;;;;;;;20.42;3.67;;;;;;;;;;5071768;28;20646;-50
2023/10/11 01:17:40;;;;;;;14.70;1.67;;;19.30;49.40;;;;;;5071433;28;20204;-50
2023/10/11 01:20:13;;;;;;;18.67;4.78;;;19.30;49.60;;;;;;5071544;28;20407;-50
2023/10/11 01:22:45;;;;;;;20.23;2.17;;;19.30;49.50;;;;;;5071473;28;20663;-50
2023/10/11 01:25:18;;;;;;;17.63;2.20;;;19.40;49.40;;;;;;5071511;28;20418;-49
2023/10/11 01:27:45;;;;;;;14.18;2.75;;;;;;;;;;5071390;28;20462;-48
2023/10/11 01:30:11;;;;;;;15.32;2.42;;;;;;;;;;5071466;28;20169;-51
2023/10/11 01:32:41;;;;;;;17.03;2.17;;;;;;;;;;5071399;28;20168;-48
2023/10/11 01:35:10;;;;;;;19.90;2.35;;;;;;;;;;5071297;28;20399;-48
2023/10/11 01:37:44;;;;;;;14.15;2.90;;;;;;;;;;5071307;28;20204;-47
2023/10/11 01:40:20;;;;;;;17.47;2.67;;;19.40;49.10;;;;;;5071385;28;20521;-51
2023/10/11 01:42:49;;;;;;;13.55;2.13;;;19.50;49.00;;;;;;5071379;28;20410;-51
2023/10/11 01:45:17;;;;;;;10.00;1.33;;;19.40;49.00;;;;;;5071275;28;20226;-48
2023/10/11 01:47:44;;;;;;;14.87;2.40;;;19.40;48.80;;;;;;5070946;28;20208;-50
2023/10/11 01:50:10;;;;;;;17.80;3.10;;;;;;;;;;5071435;28;20436;-51
2023/10/11 01:52:36;;;;;;;16.08;2.78;;;;;;;;;;5071422;28;20403;-51
2023/10/11 01:55:03;;;;;;;15.35;2.15;;;;;;;;;;5071171;28;20169;-49
2023/10/11 01:57:29;;;;;;;17.20;3.42;;;19.50;48.90;;;;;;5070875;28;20223;-51
2023/10/11 01:59:55;;;;;;;19.07;2.73;;;;;;;;;;5071145;28;20169;-47
2023/10/11 02:02:27;;;;;;;18.33;3.13;;;19.40;49.00;;;;;;5071372;28;20184;-49
2023/10/11 02:04:57;;;;;;;15.37;2.23;;;19.40;49.00;;;;;;5071316;28;20422;-50
2023/10/11 02:07:23;;;;;;;14.70;2.50;;;19.40;49.10;;;;;;5070880;28;20469;-51
2023/10/11 02:09:49;;;;;;;14.65;1.73;;;19.40;49.10;;;;;;5071438;28;20407;-48
2023/10/11 02:12:17;;;;;;;15.10;1.87;;;19.30;49.20;;;;;;5074610;28;20177;-50
2023/10/11 02:14:44;;;;;;;13.95;1.83;;;19.30;49.30;;;;;;5074522;28;20173;-50
2023/10/11 02:17:13;;;;;;;15.00;2.05;;;19.30;49.30;;;;;;5074487;28;20204;-50
2023/10/11 02:19:39;;;;;;;14.75;2.25;;;19.30;49.30;;;;;;5074641;28;20204;-50
2023/10/11 02:22:04;;;;;;;15.93;2.07;;;19.20;49.40;;;;;;5074613;28;20254;-47
2023/10/11 02:24:31;;;;;;;15.67;3.07;;;;;;;;;;5074402;28;20434;-51
2023/10/11 02:26:58;;;;;;;18.55;3.33;;;;;;;;;;5073992;28;20455;-49
2023/10/11 02:29:25;;;;;;;22.08;2.67;;;19.10;49.80;;;;;;5074323;28;20533;-51
2023/10/11 02:31:55;;;;;;;23.65;3.05;;;;;;;;;;5074489;28;20179;-49
2023/10/11 02:34:22;;;;;;;12.45;2.45;;;19.10;49.90;;;;;;5074414;28;20727;-51
2023/10/11 02:37:01;;;;;;;14.00;2.15;;;;;;;;;;5074002;28;20200;-48
2023/10/11 02:39:34;;;;;;;14.30;1.80;;;;;;;;;;5074112;28;20603;-51
2023/10/11 02:42:00;;;;;;;18.73;2.85;;;19.00;49.80;;;;;;5074403;28;20348;-48
2023/10/11 02:44:26;;;;;;;19.60;2.90;;;19.00;49.90;;;;;;5074230;28;20263;-49
2023/10/11 02:46:52;;;;;;;21.10;4.10;;;18.90;50.00;;;;;;5073677;28;20207;-51
2023/10/11 02:49:19;;;;;;;16.45;3.00;;;;;;;;;;5074030;28;20407;-48
2023/10/11 02:51:56;;;;;;;13.10;2.30;;;18.80;50.30;;;;;;5073899;28;20203;-51
2023/10/11 02:54:38;;;;;;;11.48;1.90;;;;;;;;;;5074176;28;20184;-48
2023/10/11 02:57:19;;;;;;;18.50;1.95;;;;;;;;;;5073523;28;20216;-48
2023/10/11 02:59:50;;;;;;;11.02;1.80;;;;;;;;;;5073747;28;20183;-50
2023/10/11 03:02:16;;;;;;;15.82;2.75;;;18.70;50.60;;;;;;5073710;28;20552;-48
2023/10/11 03:04:42;;;;;;;16.63;2.22;;;18.70;50.60;;;;;;5073515;28;20536;-48
2023/10/11 03:07:14;;;;;;;13.37;1.40;;;18.70;50.50;;;;;;5073191;28;20208;-50
2023/10/11 03:09:40;;;;;;;20.30;2.65;;;18.70;50.60;;;;;;5073712;28;20411;-50
2023/10/11 03:12:18;;;;;;;24.60;3.17;;;;;;;;;;5073512;28;20237;-48
2023/10/11 03:14:45;;;;;;;13.65;1.75;;;18.70;50.40;;;;;;5073474;28;20398;-51
2023/10/11 03:17:13;;;;;;;17.85;2.05;;;;;;;;;;5073012;28;20235;-49
2023/10/11 03:19:43;;;;;;;15.43;1.88;;;18.70;50.20;;;;;;5073521;28;20183;-48
2023/10/11 03:22:10;;;;;;;16.42;3.20;;;;;;;;;;5073178;28;20181;-48
2023/10/11 03:24:40;;;;;;;17.55;2.90;;;18.60;50.40;;;;;;5073329;28;20535;-49
2023/10/11 03:27:10;;;;;;;14.35;2.75;;;18.60;50.50;;;;;;5072936;28;20207;-48
2023/10/11 03:29:36;;;;;;;14.32;2.40;;;18.60;50.50;;;;;;5073007;28;20544;-48
2023/10/11 03:32:04;;;;;;;15.20;1.90;;;18.60;50.60;;;;;;5073296;28;20172;-49
2023/10/11 03:34:30;;;;;;;16.17;3.53;;;;;;;;;;5073244;28;20177;-52
2023/10/11 03:36:59;;;;;;;19.25;3.92;;;;;;;;;;5072700;28;20668;-51
2023/10/11 03:42:07;;;;;;;26.25;3.47;;;18.50;50.80;;;;;;5072897;28;20179;-50
2023/10/11 03:44:36;;;;;;;21.05;2.80;;;;;;;;;;5072787;28;20636;-50
2023/10/11 03:47:08;;;;;;;16.88;3.22;;;18.60;50.80;;;;;;5072619;28;20227;-50
2023/10/11 03:49:47;;;;;;;16.98;3.00;;;18.50;50.80;;;;;;5072942;28;20172;-50
2023/10/11 03:52:30;;;;;;;20.35;4.15;;;18.50;50.80;;;;;;5072910;28;20268;-50
2023/10/11 03:55:09;;;;;;;16.45;3.90;;;18.50;50.90;;;;;;5072651;28;20172;-49
2023/10/11 03:57:41;;;;;;;26.95;3.60;;;;;;;;;;5072365;28;20212;-50
2023/10/11 04:00:46;;;;;;;16.50;3.17;;;18.40;51.10;;;;;;5072649;28;20278;-48
2023/10/11 04:03:05;;;;;;;18.95;2.72;;;18.50;51.30;;;;;;5071261;28;20177;-50
2023/10/11 04:05:35;;;;;;;18.90;2.83;;;;;;;;;;5072289;28;20181;-50
2023/10/11 04:08:05;;;;;;;22.48;2.85;;;;;;;;;;5072348;28;20212;-48
2023/10/11 04:10:39;;;;;;;17.58;4.20;;;;;;;;;;5072369;28;20636;-50
2023/10/11 04:13:15;;;;;;;15.07;2.63;;;;;;;;;;5072350;28;20184;-51
2023/10/11 04:15:49;;;;;;;36.03;4.50;;;18.50;51.00;;;;;;5072283;28;20524;-49
2023/10/11 04:18:52;;;;;;;19.75;2.60;;;18.40;50.90;;;;;;5072460;28;20175;-51
2023/10/11 04:23:36;;;;;;;15.80;2.65;;;;;;;;;;5072182;28;20207;-47
2023/10/11 04:26:33;;;;;;;13.10;2.17;;;18.50;50.90;;;;;;5071733;28;20831;-49
2023/10/11 04:28:55;;;;;;;12.43;2.50;;;;;;;;;;5071991;28;20191;-50
2023/10/11 04:31:40;;;;;;;14.45;3.22;;;18.40;50.80;;;;;;5072234;28;20200;-48
2023/10/11 04:34:11;;;;;;;20.27;2.90;;;18.30;51.20;;;;;;5071519;28;20936;-48
2023/10/11 04:36:43;;;;;;;21.75;3.83;;;;;;;;;;5071712;28;20197;-49
2023/10/11 04:39:27;;;;;;;13.20;2.40;;;18.30;51.00;;;;;;5071892;28;20266;-48
2023/10/11 04:41:57;;;;;;;15.40;2.40;;;;;;;;;;5071909;28;20173;-48
2023/10/11 04:44:23;;;;;;;19.55;3.42;;;18.30;51.00;;;;;;5071952;28;20666;-52
2023/10/11 04:46:57;;;;;;;21.17;3.42;;;18.40;50.90;;;;;;5071417;28;20212;-48
2023/10/11 04:49:25;;;;;;;13.85;1.52;;;18.40;50.80;;;;;;5072100;28;20177;-50
2023/10/11 04:51:56;;;;;;;16.77;2.95;;;18.30;50.80;;;;;;5072067;28;20180;-48
2023/10/11 04:54:36;;;;;;;18.90;3.03;;;18.30;50.80;;;;;;5071844;28;20176;-47
2023/10/11 04:57:08;;;;;;;20.08;3.58;;;18.40;50.90;;;;;;5071309;28;20223;-49
2023/10/11 05:02:08;;;;;;;18.52;2.72;;;18.30;50.70;;;;;;5071802;28;20293;-50
2023/10/11 05:04:41;;;;;;;19.10;3.95;;;18.30;50.80;;;;;;5071739;28;20678;-51
2023/10/11 05:07:07;;;;;;;23.83;3.05;;;18.30;50.80;;;;;;5071303;28;20583;-48
2023/10/11 05:14:41;;;;;;;19.45;2.80;;;18.30;50.90;;;;;;5071697;28;20183;-51
2023/10/11 05:19:56;;;;;;;17.60;2.60;;;;;;;;;;5071614;28;20160;-50
2023/10/11 05:52:13;;;;;;;15.15;2.70;;;18.30;50.80;;;;;;5075356;28;20705;-49
2023/10/11 05:54:40;;;;;;;22.17;3.20;;;;;;;;;;5075075;28;20235;-51
2023/10/11 05:57:06;;;;;;;20.50;3.33;;;18.40;50.90;;;;;;5074589;28;20287;-49
2023/10/11 05:59:37;;;;;;;14.93;3.83;;;;;;;;;;5074818;28;20184;-49
2023/10/11 06:02:18;;;;;;;14.02;2.83;;;;;;;;;;5074840;28;20184;-51
2023/10/11 06:04:45;;;;;;;15.23;1.65;;;18.50;50.90;;;;;;5074963;28;20202;-49
2023/10/11 06:07:20;;;;;;;16.70;3.15;;;;;;;;;;5074532;28;20202;-48
2023/10/11 06:09:52;;;;;;;14.93;2.08;;;18.60;50.60;;;;;;5074678;28;20180;-52
2023/10/11 06:12:29;;;;;;;19.30;2.80;;;;;;;;;;5075005;28;20207;-49
2023/10/11 06:14:56;;;;;;;16.35;2.72;;;18.60;50.40;;;;;;5074811;28;20207;-52
2023/10/11 06:17:41;;;;;;;18.17;2.63;;;18.60;50.40;;;;;;5074379;28;20215;-49
2023/10/11 06:20:29;;;;;;;14.20;2.55;;;18.60;50.40;;;;;;5074663;28;20679;-52
2023/10/11 06:22:55;;;;;;;18.85;3.40;;;;;;;;;;5074758;28;20180;-49
2023/10/11 06:25:49;;;;;;;25.00;3.95;;;;;;;;;;5074288;28;20212;-53
2023/10/11 06:28:13;;;;;;;16.60;3.50;;;18.70;50.60;;;;;;5074291;28;20205;-51
2023/10/11 06:30:43;;;;;;;10.68;1.48;;;;;;;;;;5074248;28;20177;-50
2023/10/11 06:33:13;;;;;;;15.55;2.92;;;18.70;50.30;;;;;;5074452;28;20226;-49
2023/10/11 06:35:49;;;;;;;53.72;7.18;;;18.80;50.50;;;;;;5074151;28;20169;-51
2023/10/11 06:38:15;;;;;;;18.08;2.88;;;;;;;;;;5074246;28;20191;-49
2023/10/11 06:40:49;;;;;;;12.65;2.35;;;;;;;;;;5074072;28;20187;-49
2023/10/11 06:43:16;;;;;;;13.95;2.10;;;;;;;;;;5074160;28;20185;-52
2023/10/11 06:45:42;;;;;;;35.33;5.47;;;19.00;50.20;;;;;;5073738;28;20520;-49
2023/10/11 06:48:10;;;;;;;16.42;3.05;;;19.00;50.30;;;;;;5074155;28;20211;-49
2023/10/11 06:50:37;;;;;;;17.15;3.00;;;19.00;50.30;;;;;;5074093;28;20521;-53
2023/10/11 06:53:07;;;;;;;23.40;3.13;;;;;;;;;;5073889;28;20263;-47
2023/10/11 06:55:35;;;;;;;47.70;6.28;;;19.10;50.30;;;;;;5073058;28;20263;-49
2023/10/11 06:58:09;;;;;;;22.27;3.10;;;19.10;50.40;;;;;;5073775;28;20177;-53
2023/10/11 07:00:38;;;;;;;14.15;2.30;;;;;;;;;;5073820;28;20174;-49
2023/10/11 07:03:09;;;;;;;12.63;2.30;;;19.20;50.10;;;;;;5073726;28;20191;-49
2023/10/11 07:05:40;;;;;;;16.13;3.42;;;19.20;49.80;;;;;;5073549;28;20180;-52
2023/10/11 07:08:09;;;;;;;14.65;3.00;;;19.30;50.00;;;;;;5073559;28;20245;-52
2023/10/11 07:10:36;;;;;;;13.55;3.17;;;;;;;;;;5073512;28;20188;-49
2023/10/11 07:13:06;;;;;;;9.95;2.15;;;19.40;49.50;;;;;;5073753;28;20307;-52
2023/10/11 07:15:43;;;;;;;21.33;2.90;;;19.50;49.70;;;;;;5073184;28;20180;-52
2023/10/11 07:18:10;;;;;;;10.50;1.85;;;;;;;;;;5073394;28;20176;-49
2023/10/11 07:23:22;;;;;;;24.40;4.10;;;19.60;49.60;;;;;;5073587;28;20188;-49
2023/10/11 07:25:59;;;;;;;29.00;4.07;;;19.60;49.50;;;;;;5072976;28;20200;-49
2023/10/11 07:28:35;;;;;;;13.85;2.08;;;19.70;49.60;;;;;;5073328;28;20245;-53
2023/10/11 07:31:03;;;;;;;14.37;2.77;;;;;;;;;;5073098;28;20698;-48
2023/10/11 07:33:29;;;;;;;5.82;3.05;;;19.90;49.40;;;;;;5073033;28;20412;-50
2023/10/11 07:35:59;;;;;;;4.70;2.03;;;19.90;50.10;;;;;;5072826;28;20386;-49
2023/10/11 07:38:32;;;;;;;10.87;2.70;;;19.90;49.50;;;;;;5072937;28;20249;-51
2023/10/11 07:41:05;;;;;;;3.88;1.77;;;20.00;49.20;;;;;;5073049;28;20822;-53
2023/10/11 07:43:32;;;;;;;16.98;2.22;;;20.10;49.60;;;;;;5072995;28;20180;-48
2023/10/11 07:45:59;;;;;;;21.25;2.22;;;;;;;;;;5072496;28;20285;-51
2023/10/11 07:48:29;;;;;;;21.57;2.33;;;20.40;49.20;;;;;;5072700;28;20212;-51
2023/10/11 07:50:58;;;;;;;9.65;3.22;;;20.50;48.00;;;;;;5072760;28;20438;-48
2023/10/11 07:53:25;;;;;;;26.97;3.67;;;20.50;47.70;;;;;;5072733;28;20173;-51
2023/10/11 07:55:51;;;;;;;16.25;1.95;;;20.60;47.90;;;;;;5072263;28;20450;-50
2023/10/11 07:58:26;;;;;;;39.00;3.77;;;20.80;48.20;;;;;;5072588;28;20191;-49
2023/10/11 08:00:52;;;;;;;26.10;3.30;;;20.80;47.50;;;;;;5072524;28;20824;-52
2023/10/11 08:03:17;;;;;;;15.23;2.30;;;20.90;47.90;;;;;;5072732;28;20410;-53
2023/10/11 08:05:46;;;;;;;48.63;4.10;;;21.00;48.00;;;;;;5072383;28;20928;-51
2023/10/11 08:08:15;;;;;;;23.73;2.90;;;21.10;47.80;;;;;;5071710;28;20204;-47
2023/10/11 08:10:44;;;;;;;20.50;3.03;;;21.20;47.00;;;;;;5072402;28;20472;-51
2023/10/11 08:13:26;;;;;;;50.20;3.50;;;;;;;;;;5072288;28;20406;-52
2023/10/11 08:15:59;;;;;;;20.93;2.50;;;21.40;48.00;;;;;;5072251;28;20786;-49
2023/10/11 08:18:28;;;;;;;25.17;3.40;;;;;;;;;;5072327;28;20407;-52
2023/10/11 08:20:54;;;;;;;17.03;2.30;;;21.70;47.40;;;;;;5072177;28;20894;-50
2023/10/11 08:23:29;;;;;;;16.13;1.90;;;21.80;47.60;;;;;;5072090;28;20409;-50
2023/10/11 08:25:56;;;;;;;17.33;1.73;;;21.90;47.00;;;;;;5072123;28;20529;-51
2023/10/11 08:28:28;;;;;;;22.07;2.70;;;22.10;47.40;;;;;;5072234;28;20450;-48
2023/10/11 08:30:57;;;;;;;31.10;3.90;;;22.30;46.50;;;;;;5072158;28;20407;-49
2023/10/11 08:33:25;;;;;;;21.80;3.47;;;;;;;;;;5072183;28;20409;-52
2023/10/11 08:35:53;;;;;;;25.90;10.13;;;;;;;;;;5071604;28;20429;-51
2023/10/11 08:38:19;;;;;;;25.17;3.93;;;;;;;;;;5072195;28;20402;-49
2023/10/11 08:40:50;;;;;;;21.37;3.17;;;;;;;;;;5071861;28;20399;-48
2023/10/11 08:43:16;;;;;;;17.77;2.70;;;22.70;45.20;;;;;;5072171;28;20391;-52
2023/10/11 08:45:48;;;;;;;48.07;6.33;;;;;;;;;;5071709;28;20407;-52
2023/10/11 08:48:15;;;;;;;18.73;3.50;;;;;;;;;;5071841;28;20450;-49
2023/10/11 08:50:51;;;;;;;21.80;2.47;;;23.00;44.90;;;;;;5072013;28;20433;-52
2023/10/11 08:53:22;;;;;;;17.90;2.57;;;23.20;45.10;;;;;;5071942;28;20811;-49
2023/10/11 08:55:59;;;;;;;28.53;7.10;;;23.20;45.00;;;;;;5071549;28;20430;-49
2023/10/11 08:58:29;;;;;;;4.97;1.63;;;23.30;45.60;;;;;;5071929;28;20410;-48
2023/10/11 09:00:59;;;;;;;9.23;2.67;;;23.40;44.50;;;;;;5071740;28;20403;-49
2023/10/11 09:03:26;;;;;;;4.80;2.33;;;23.60;45.20;;;;;;5071850;28;20441;-52
2023/10/11 09:05:59;;;;;;;2.50;1.60;;;23.80;45.50;;;;;;5071543;28;20422;-53
2023/10/11 09:08:32;;;;;;;5.57;2.57;;;24.00;43.90;;;;;;5071743;28;20484;-52
2023/10/11 09:11:32;;;;;;;2.33;1.43;;;24.10;42.60;;;;;;5071734;28;20436;-49
2023/10/11 09:14:12;;;;;;;2.93;1.93;;;24.30;43.60;;;;;;5071908;28;20767;-50
2023/10/11 09:16:42;;;;;;;3.90;1.67;;;24.40;43.20;;;;;;5071465;28;20442;-52
2023/10/11 09:19:11;;;;;;;2.90;1.93;;;24.50;41.90;;;;;;5072422;28;20507;-49
2023/10/11 09:21:42;;;;;;;3.20;2.47;;;24.70;42.70;;;;;;5075531;28;20421;-50
2023/10/11 09:24:29;;;;;;;3.90;2.03;;;24.80;43.00;;;;;;5075548;28;20423;-51
2023/10/11 09:29:48;;;;;;;2.83;1.80;;;25.10;41.70;;;;;;5075476;28;20519;-49
2023/10/11 09:32:19;;;;;;;2.63;1.80;;;25.20;41.20;;;;;;5075352;28;20429;-50
2023/10/11 09:34:46;;;;;;;2.67;1.80;;;25.40;41.60;;;;;;5075638;28;20393;-52
2023/10/11 09:37:12;;;;;;;2.80;1.37;;;25.50;39.00;;;;;;5075146;28;20430;-52
2023/10/11 09:39:42;;;;;;;2.80;1.77;;;25.70;39.30;;;;;;5075258;28;20409;-49
2023/10/11 09:42:11;;;;;;;3.00;1.63;;;25.80;40.30;;;;;;5075343;28;20412;-51
2023/10/11 09:44:39;;;;;;;1.83;0.93;;;25.90;40.40;;;;;;5075096;28;20418;-52
2023/10/11 09:47:07;;;;;;;3.70;1.80;;;26.00;39.50;;;;;;5074840;28;21056;-50
2023/10/11 09:49:42;;;;;;;2.43;1.23;;;26.20;39.40;;;;;;5075206;28;20406;-49
2023/10/11 09:52:10;;;;;;;5.93;2.07;;;26.30;35.60;;;;;;5075173;28;20445;-51
2023/10/11 09:54:38;;;;;;;3.03;1.37;;;26.50;37.70;;;;;;5075015;28;20403;-49
2023/10/11 09:57:38;;;;;;;2.30;1.20;;;26.60;34.60;;;;;;5074416;28;20454;-53
2023/10/11 10:00:34;;;;;;;2.67;1.27;;;26.80;34.30;;;;;;5074845;28;20402;-53
2023/10/11 10:02:59;;;;;;;5.17;2.03;;;26.90;34.30;;;;;;5074814;28;20766;-50
2023/10/11 10:05:30;;;;;;;3.30;2.70;;;27.00;35.10;;;;;;5074544;28;20402;-49
2023/10/11 10:08:14;;;;;;;4.53;1.80;;;27.10;34.10;;;;;;5074865;28;20207;-52
2023/10/11 10:10:53;;;;;;;1.70;1.00;;;27.20;35.00;;;;;;5074672;28;20399;-52
2023/10/11 10:13:24;;;;;;;3.83;1.67;;;27.20;33.80;;;;;;5074716;28;20398;-49
2023/10/11 10:15:52;;;;;;;2.50;1.53;;;27.20;30.60;;;;;;5074354;28;20973;-50
2023/10/11 10:18:22;;;;;;;11.03;1.93;;;27.20;32.30;;;;;;5074421;28;20886;-50
2023/10/11 10:21:04;;;;;;;2.27;1.97;;;27.20;33.30;;;;;;5074374;28;20407;-51
2023/10/11 10:23:38;;;;;;;9.67;2.40;;;27.40;33.60;;;;;;5074495;28;20443;-49
2023/10/11 10:26:04;;;;;;;9.13;2.10;;;27.40;32.80;;;;;;5074195;28;20437;-52
2023/10/11 10:28:35;;;;;;;2.27;1.50;;;27.50;32.30;;;;;;5074169;28;20980;-50
2023/10/11 10:31:11;;;;;;;2.47;1.63;;;27.60;33.10;;;;;;5073668;28;20783;-52
2023/10/11 10:33:41;;;;;;;14.93;2.60;;;27.70;30.80;;;;;;5074405;28;20406;-50
2023/10/11 10:36:20;;;;;;;17.70;2.10;;;27.80;29.70;;;;;;5074001;28;20811;-50
2023/10/11 10:39:00;;;;;;;1.80;1.03;;;27.90;29.40;;;;;;5074055;28;20399;-51
2023/10/11 10:41:27;;;;;;;3.60;2.10;;;27.90;27.00;;;;;;5074092;28;20907;-51
2023/10/11 10:44:12;;;;;;;251.03;231.47;;;28.00;27.50;;;;;;5074170;28;20774;-50
2023/10/11 10:46:51;;;;;;;391.57;362.73;;;;;;;;;;5073729;28;20848;-50
2023/10/11 10:49:18;;;;;;;26.87;2.40;;;28.00;26.00;;;;;;5073808;28;20836;-49
2023/10/11 10:51:47;;;;;;;552.60;506.57;;;;;;;;;;5074087;28;20441;-52
2023/10/11 10:54:23;;;;;;;408.87;376.83;;;;;;;;;;5073923;28;20387;-50
2023/10/11 10:56:53;;;;;;;533.47;482.17;;;;;;;;;;5073397;28;20450;-51
2023/10/11 10:59:22;;;;;;;480.63;423.80;;;28.10;30.00;;;;;;5073688;28;20494;-52
2023/10/11 11:01:50;;;;;;;324.10;295.47;;;28.20;31.10;;;;;;5073693;28;20407;-50
2023/10/11 11:04:20;;;;;;;135.40;123.70;;;28.30;30.70;;;;;;5073582;28;20419;-50
2023/10/11 11:06:50;;;;;;;621.47;560.90;;;28.30;26.30;;;;;;5073437;28;20490;-49
2023/10/11 11:09:27;;;;;;;584.60;522.63;;;28.40;28.80;;;;;;5074042;28;20434;-48
2023/10/11 11:11:55;;;;;;;582.53;519.03;;;;;;;;;;5073408;28;20894;-52
2023/10/11 11:14:23;;;;;;;586.50;522.10;;;28.60;29.40;;;;;;5073265;28;20732;-52
2023/10/11 11:17:00;;;;;;;551.30;474.73;;;28.60;28.50;;;;;;5073028;28;20929;-50
2023/10/11 11:19:26;;;;;;;590.17;531.00;;;28.60;29.20;;;;;;5073370;28;21025;-52
2023/10/11 11:22:15;;;;;;;544.07;453.57;;;;;;;;;;5073382;28;20408;-50
2023/10/11 11:24:42;;;;;;;563.87;502.13;;;28.70;29.60;;;;;;5073114;28;20407;-53
2023/10/11 11:27:26;;;;;;;561.87;495.47;;;28.80;28.80;;;;;;5072805;28;20455;-49
2023/10/11 11:30:02;;;;;;;571.30;509.13;;;28.90;26.50;;;;;;5073121;28;20412;-52
2023/10/11 11:32:38;;;;;;;588.37;524.00;;;28.90;28.70;;;;;;5073127;28;20952;-48
2023/10/11 11:35:09;;;;;;;571.90;510.50;;;;;;;;;;5072943;28;20426;-51
2023/10/11 11:37:39;;;;;;;579.73;515.93;;;;;;;;;;5072745;28;20456;-52
2023/10/11 11:40:24;;;;;;;547.45;484.90;;;;;;;;;;5073050;28;20415;-48
2023/10/11 11:42:50;;;;;;;234.53;214.03;;;29.30;26.20;;;;;;5072834;28;20585;-51
2023/10/11 11:45:27;;;;;;;567.17;511.43;;;;;;;;;;5072815;28;20461;-49
2023/10/11 11:47:56;;;;;;;581.35;520.00;;;;;;;;;;5072697;28;20860;-52
2023/10/11 11:50:25;;;;;;;530.13;412.87;;;;;;;;;;5072694;28;20169;-49
2023/10/11 11:52:51;;;;;;;1.33;0.83;;;29.80;27.80;;;;;;5072633;28;20400;-50
2023/10/11 11:55:22;;;;;;;645.27;582.40;;;30.00;25.50;;;;;;5072466;28;20410;-49
2023/10/11 11:57:49;;;;;;;624.73;561.93;;;;;;;;;;5072494;28;20515;-49
2023/10/11 12:02:49;;;;;;;503.27;414.73;;;;;;;;;;5072516;28;20177;-49
2023/10/11 12:05:16;;;;;;;583.17;522.08;;;;;;;;;;5072203;28;20176;-51
2023/10/11 12:07:43;;;;;;;39.80;27.83;;;30.00;25.60;;;;;;5071836;28;20209;-53
2023/10/11 12:10:23;;;;;;;53.50;30.20;;;30.00;24.90;;;;;;5072120;28;20410;-49
2023/10/11 12:12:53;;;;;;;2.80;1.63;;;30.00;26.80;;;;;;5072313;28;20416;-48
2023/10/11 12:15:20;;;;;;;2.33;1.60;;;30.10;25.40;;;;;;5072042;28;20402;-52
2023/10/11 12:17:53;;;;;;;2.37;1.50;;;30.20;27.40;;;;;;5071528;28;21003;-51
2023/10/11 12:20:22;;;;;;;1.40;0.80;;;30.20;27.00;;;;;;5069348;28;20409;-49
2023/10/11 12:22:50;;;;;;;359.00;322.73;;;30.40;26.10;;;;;;5068460;28;20932;-50
2023/10/11 12:25:24;;;;;;;3.73;1.43;;;30.40;26.70;;;;;;5052201;28;20429;-52
2023/10/11 12:27:50;;;;;;;1.93;1.10;;;30.50;27.20;;;;;;5051816;28;20485;-51
2023/10/11 12:30:22;;;;;;;2.00;1.10;;;30.50;26.60;;;;;;5051972;28;20503;-50
2023/10/11 12:32:49;;;;;;;1.30;0.70;;;30.50;26.30;;;;;;5051927;28;20836;-52
2023/10/11 12:35:16;;;;;;;1.53;0.83;;;30.50;24.10;;;;;;5064331;28;20449;-49
2023/10/11 12:37:42;;;;;;;1.20;0.70;;;30.40;26.90;;;;;;5071716;28;20430;-48
2023/10/11 12:40:22;;;;;;;3.73;3.53;;;30.40;27.00;;;;;;5072092;28;20410;-53
2023/10/11 12:42:48;;;;;;;80.33;74.63;;;30.30;26.80;;;;;;5072162;28;20421;-49
2023/10/11 12:45:17;;;;;;;481.17;429.73;;;30.30;27.90;;;;;;5071866;28;20429;-49
2023/10/11 12:47:44;;;;;;;10.43;9.77;;;;;;;;;;5071626;28;21010;-52
2023/10/11 12:50:09;;;;;;;1.73;1.57;;;30.30;27.20;;;;;;5071756;28;20399;-49
2023/10/11 12:52:38;;;;;;;1.50;1.13;;;30.30;24.50;;;;;;5071925;28;20456;-51
2023/10/11 12:55:06;;;;;;;2.60;1.87;;;30.30;23.60;;;;;;5071720;28;20168;-52
2023/10/11 12:57:33;;;;;;;5.53;1.20;;;30.30;25.70;;;;;;5071718;28;20431;-50
2023/10/11 12:59:58;;;;;;;1.93;1.00;;;30.30;26.00;;;;;;5071586;28;20446;-52
2023/10/11 13:02:33;;;;;;;1.80;1.47;;;30.30;27.10;;;;;;5071410;28;20434;-49
2023/10/11 13:04:59;;;;;;;2.30;1.43;;;30.30;27.40;;;;;;5071687;28;20187;-52
2023/10/11 13:07:29;;;;;;;1.33;0.80;;;30.30;24.80;;;;;;5071539;28;20450;-49
2023/10/11 13:10:02;;;;;;;4.70;4.33;;;30.20;26.40;;;;;;5071626;28;20882;-53
2023/10/11 13:12:34;;;;;;;1.63;1.03;;;30.10;23.30;;;;;;5071692;28;20416;-51
2023/10/11 13:15:02;;;;;;;1.43;1.20;;;30.10;24.30;;;;;;5071513;28;20917;-50
2023/10/11 13:17:28;;;;;;;2.00;1.77;;;30.00;24.80;;;;;;5071504;28;20437;-52
2023/10/11 13:19:53;;;;;;;2.07;1.17;;;30.00;25.80;;;;;;5071688;28;20779;-53
2023/10/11 13:22:19;;;;;;;1.80;1.30;;;30.10;24.90;;;;;;5071701;28;20177;-50
2023/10/11 13:24:47;;;;;;;4.47;1.17;;;30.10;24.70;;;;;;5071500;28;20255;-52
2023/10/11 13:27:13;;;;;;;1.93;1.27;;;30.00;25.00;;;;;;5071167;28;20549;-50
2023/10/11 13:29:38;;;;;;;2.13;1.37;;;30.00;24.90;;;;;;5071287;28;20412;-52
2023/10/11 13:32:04;;;;;;;2.80;1.43;;;30.00;25.00;;;;;;5071425;28;20260;-49
2023/10/11 13:34:33;;;;;;;2.30;1.53;;;29.90;23.90;;;;;;5071426;28;20184;-49
2023/10/11 13:37:00;;;;;;;2.53;1.47;;;29.90;25.30;;;;;;5071072;28;20192;-53
2023/10/11 13:39:38;;;;;;;1.40;0.90;;;29.80;23.00;;;;;;5071274;28;20781;-49
2023/10/11 13:42:04;;;;;;;2.90;1.43;;;29.80;25.10;;;;;;5071281;28;20409;-49
2023/10/11 13:44:35;;;;;;;1.60;1.10;;;29.70;24.30;;;;;;5071471;28;20411;-53
2023/10/11 13:47:01;;;;;;;1.63;1.30;;;29.80;25.50;;;;;;5070938;28;20458;-51
2023/10/11 13:49:27;;;;;;;1.57;1.03;;;29.80;26.00;;;;;;5071296;28;20406;-49
2023/10/11 13:51:54;;;;;;;2.40;1.27;;;29.70;23.50;;;;;;5071236;28;20176;-50
2023/10/11 13:54:36;;;;;;;2.40;1.40;;;29.60;24.10;;;;;;5071225;28;20460;-50
2023/10/11 13:57:07;;;;;;;3.13;1.17;;;29.50;22.20;;;;;;5070788;28;20956;-49
2023/10/11 13:59:50;;;;;;;1.77;1.60;;;29.40;23.40;;;;;;5071210;28;20442;-50
2023/10/11 14:05:19;;;;;;;7.17;2.30;;;29.30;25.30;;;;;;5048761;28;20423;-52
2023/10/11 14:07:51;;;;;;;1.30;1.10;;;29.30;26.70;;;;;;5051538;28;20922;-50
2023/10/11 14:10:27;;;;;;;1.87;1.23;;;29.20;25.50;;;;;;5052390;28;20411;-53
2023/10/11 14:12:56;;;;;;;3.43;1.37;;;29.20;26.40;;;;;;5052277;28;20411;-51
2023/10/11 14:15:24;;;;;;;2.70;1.90;;;29.10;25.80;;;;;;5052101;28;20502;-52
2023/10/11 14:17:49;;;;;;;3.40;1.90;;;29.10;25.50;;;;;;5052017;28;20474;-53
2023/10/11 14:20:24;;;;;;;1.80;1.53;;;29.10;26.70;;;;;;5052094;28;20960;-50
2023/10/11 14:22:56;;;;;;;1.10;0.70;;;29.00;25.80;;;;;;5052184;28;20179;-52